sensor_id;sensor_type;location;lat;lon;timestamp;pressure;altitude;pressure_sealevel;temperature;humidity
65614;BME280;52283;49.292;10.572;2022-11-15T00:00:43;96350.81;;;6.56;100.00
65614;BME280;52283;49.292;10.572;2022-11-15T00:03:13;96364.97;;;6.58;100.00
65614;BME280;52283;49.292;10.572;2022-11-15T00:05:41;96365.34;;;6.65;100.00
65614;BME280;52283;49.292;10.572;2022-11-15T00:08:07;96361.34;;;6.66;100.00
65614;BME280;52283;49.292;10.572;2022-11-15T00:10:34;96357.41;;;6.58;100.00
65614;BME280;52283;49.292;10.572;2022-11-15T00:13:04;96360.75;;;6.62;100.00
65614;BME280;52283;49.292;10.572;2022-11-15T00:15:31;96357.22;;;6.62;100.00
65614;BME280;52283;49.292;10.572;2022-11-15T00:17:57;96355.88;;;6.72;100.00
65614;BME280;52283;49.292;10.572;2022-11-15T00:20:24;96356.44;;;6.76;100.00
65614;BME280;52283;49.292;10.572;2022-11-15T00:22:51;96353.97;;;6.78;100.00
65614;BME280;52283;49.292;10.572;2022-11-15T00:25:18;96357.97;;;6.77;100.00
65614;BME280;52283;49.292;10.572;2022-11-15T00:27:44;96358.81;;;6.83;100.00
65614;BME280;52283;49.292;10.572;2022-11-15T00:30:12;96356.94;;;6.75;100.00
65614;BME280;52283;49.292;10.572;2022-11-15T00:32:38;96364.91;;;6.67;100.00
65614;BME280;52283;49.292;10.572;2022-11-15T00:35:05;96355.81;;;6.66;100.00
65614;BME280;52283;49.292;10.572;2022-11-15T00:37:32;96358.25;;;6.64;100.00
65614;BME280;52283;49.292;10.572;2022-11-15T00:39:59;96361.53;;;6.63;100.00
65614;BME280;52283;49.292;10.572;2022-11-15T00:42:26;96356.38;;;6.56;100.00
65614;BME280;52283;49.292;10.572;2022-11-15T00:44:52;96350.91;;;6.47;100.00
65614;BME280;52283;49.292;10.572;2022-11-15T00:47:19;96357.41;;;6.43;100.00
65614;BME280;52283;49.292;10.572;2022-11-15T00:49:45;96353.28;;;6.39;100.00
65614;BME280;52283;49.292;10.572;2022-11-15T00:52:12;96352.34;;;6.57;100.00
65614;BME280;52283;49.292;10.572;2022-11-15T00:54:38;96352.91;;;6.61;100.00
65614;BME280;52283;49.292;10.572;2022-11-15T00:57:06;96353.03;;;6.52;100.00
65614;BME280;52283;49.292;10.572;2022-11-15T00:59:32;96350.81;;;6.41;100.00
65614;BME280;52283;49.292;10.572;2022-11-15T01:01:59;96340.19;;;6.25;100.00
65614;BME280;52283;49.292;10.572;2022-11-15T01:04:26;96334.72;;;6.16;100.00
65614;BME280;52283;49.292;10.572;2022-11-15T01:06:52;96334.63;;;6.10;100.00
65614;BME280;52283;49.292;10.572;2022-11-15T01:09:19;96338.16;;;6.10;100.00
65614;BME280;52283;49.292;10.572;2022-11-15T01:11:46;96332.97;;;6.03;100.00
65614;BME280;52283;49.292;10.572;2022-11-15T01:14:13;96335.66;;;5.98;100.00
65614;BME280;52283;49.292;10.572;2022-11-15T01:16:40;96336.31;;;5.93;100.00
65614;BME280;52283;49.292;10.572;2022-11-15T01:19:06;96336.66;;;5.86;100.00
65614;BME280;52283;49.292;10.572;2022-11-15T01:21:33;96343.16;;;5.59;100.00
65614;BME280;52283;49.292;10.572;2022-11-15T01:23:59;96334.63;;;5.47;100.00
65614;BME280;52283;49.292;10.572;2022-11-15T01:26:26;96323.66;;;5.29;100.00
65614;BME280;52283;49.292;10.572;2022-11-15T01:28:52;96330.16;;;5.26;100.00
65614;BME280;52283;49.292;10.572;2022-11-15T01:31:21;96315.53;;;5.26;100.00
65614;BME280;52283;49.292;10.572;2022-11-15T01:33:48;96321.72;;;5.44;100.00
65614;BME280;52283;49.292;10.572;2022-11-15T01:36:16;96317.50;;;5.73;100.00
65614;BME280;52283;49.292;10.572;2022-11-15T01:38:43;96318.84;;;5.77;100.00
65614;BME280;52283;49.292;10.572;2022-11-15T01:41:15;96316.31;;;5.89;100.00
65614;BME280;52283;49.292;10.572;2022-11-15T01:43:42;96323.41;;;5.90;100.00
65614;BME280;52283;49.292;10.572;2022-11-15T01:46:23;96317.41;;;6.06;100.00
65614;BME280;52283;49.292;10.572;2022-11-15T01:48:51;96297.97;;;6.21;100.00
65614;BME280;52283;49.292;10.572;2022-11-15T01:51:21;96301.91;;;6.29;100.00
65614;BME280;52283;49.292;10.572;2022-11-15T01:53:52;96296.38;;;6.29;100.00
65614;BME280;52283;49.292;10.572;2022-11-15T01:56:23;96297.88;;;6.45;100.00
65614;BME280;52283;49.292;10.572;2022-11-15T01:58:52;96288.41;;;6.36;100.00
65614;BME280;52283;49.292;10.572;2022-11-15T02:01:19;96289.56;;;6.00;100.00
65614;BME280;52283;49.292;10.572;2022-11-15T02:03:50;96279.44;;;6.12;100.00
65614;BME280;52283;49.292;10.572;2022-11-15T02:06:18;96277.03;;;6.05;100.00
65614;BME280;52283;49.292;10.572;2022-11-15T02:08:45;96279.75;;;5.75;100.00
65614;BME280;52283;49.292;10.572;2022-11-15T02:11:12;96285.28;;;5.75;100.00
65614;BME280;52283;49.292;10.572;2022-11-15T02:13:39;96290.19;;;5.42;100.00
65614;BME280;52283;49.292;10.572;2022-11-15T02:16:11;96286.06;;;5.13;100.00
65614;BME280;52283;49.292;10.572;2022-11-15T02:18:44;96284.53;;;5.12;100.00
65614;BME280;52283;49.292;10.572;2022-11-15T02:21:22;96283.34;;;5.04;100.00
65614;BME280;52283;49.292;10.572;2022-11-15T02:24:30;96274.88;;;5.08;100.00
65614;BME280;52283;49.292;10.572;2022-11-15T02:27:28;96262.47;;;4.94;100.00
65614;BME280;52283;49.292;10.572;2022-11-15T02:30:20;96264.16;;;5.01;100.00
65614;BME280;52283;49.292;10.572;2022-11-15T02:32:51;96266.09;;;5.09;100.00
65614;BME280;52283;49.292;10.572;2022-11-15T02:35:26;96245.94;;;5.09;100.00
65614;BME280;52283;49.292;10.572;2022-11-15T02:37:57;96257.97;;;5.06;100.00
65614;BME280;52283;49.292;10.572;2022-11-15T02:40:31;96256.34;;;4.90;100.00
65614;BME280;52283;49.292;10.572;2022-11-15T02:43:04;96248.50;;;4.65;100.00
65614;BME280;52283;49.292;10.572;2022-11-15T02:45:58;96240.13;;;4.74;100.00
65614;BME280;52283;49.292;10.572;2022-11-15T02:48:28;96243.84;;;4.71;100.00
65614;BME280;52283;49.292;10.572;2022-11-15T02:50:55;96236.31;;;4.71;100.00
65614;BME280;52283;49.292;10.572;2022-11-15T02:53:24;96242.69;;;4.86;100.00
65614;BME280;52283;49.292;10.572;2022-11-15T02:55:51;96247.88;;;4.94;100.00
65614;BME280;52283;49.292;10.572;2022-11-15T02:58:46;96243.56;;;4.93;100.00
65614;BME280;52283;49.292;10.572;2022-11-15T03:01:26;96243.56;;;4.93;100.00
65614;BME280;52283;49.292;10.572;2022-11-15T03:04:06;96245.75;;;4.65;100.00
65614;BME280;52283;49.292;10.572;2022-11-15T03:06:42;96235.81;;;4.49;100.00
65614;BME280;52283;49.292;10.572;2022-11-15T03:09:20;96239.34;;;4.49;100.00
65614;BME280;52283;49.292;10.572;2022-11-15T03:11:56;96224.94;;;4.69;100.00
65614;BME280;52283;49.292;10.572;2022-11-15T03:14:29;96223.53;;;4.74;100.00
65614;BME280;52283;49.292;10.572;2022-11-15T03:17:02;96224.66;;;4.91;100.00
65614;BME280;52283;49.292;10.572;2022-11-15T03:19:35;96224.44;;;5.04;100.00
65614;BME280;52283;49.292;10.572;2022-11-15T03:22:07;96223.97;;;4.81;100.00
65614;BME280;52283;49.292;10.572;2022-11-15T03:24:36;96233.72;;;4.68;100.00
65614;BME280;52283;49.292;10.572;2022-11-15T03:27:06;96227.00;;;4.59;100.00
65614;BME280;52283;49.292;10.572;2022-11-15T03:29:36;96217.41;;;4.37;100.00
65614;BME280;52283;49.292;10.572;2022-11-15T03:32:07;96222.50;;;4.38;100.00
65614;BME280;52283;49.292;10.572;2022-11-15T03:34:39;96218.53;;;4.63;100.00
65614;BME280;52283;49.292;10.572;2022-11-15T03:37:08;96214.22;;;5.10;100.00
65614;BME280;52283;49.292;10.572;2022-11-15T03:39:36;96216.34;;;5.54;100.00
65614;BME280;52283;49.292;10.572;2022-11-15T03:42:12;96213.59;;;5.68;100.00
65614;BME280;52283;49.292;10.572;2022-11-15T03:44:47;96217.56;;;5.53;100.00
65614;BME280;52283;49.292;10.572;2022-11-15T03:47:23;96226.66;;;5.14;100.00
65614;BME280;52283;49.292;10.572;2022-11-15T03:49:52;96224.25;;;4.83;100.00
65614;BME280;52283;49.292;10.572;2022-11-15T03:52:21;96226.66;;;4.67;100.00
65614;BME280;52283;49.292;10.572;2022-11-15T03:54:49;96220.06;;;4.64;100.00
65614;BME280;52283;49.292;10.572;2022-11-15T03:57:16;96211.75;;;4.64;100.00
65614;BME280;52283;49.292;10.572;2022-11-15T03:59:43;96210.59;;;4.80;100.00
65614;BME280;52283;49.292;10.572;2022-11-15T04:02:10;96201.81;;;4.81;100.00
65614;BME280;52283;49.292;10.572;2022-11-15T04:04:37;96212.81;;;4.90;100.00
65614;BME280;52283;49.292;10.572;2022-11-15T04:07:04;96207.22;;;5.00;100.00
65614;BME280;52283;49.292;10.572;2022-11-15T04:09:30;96194.16;;;5.00;100.00
65614;BME280;52283;49.292;10.572;2022-11-15T04:11:57;96195.16;;;4.88;100.00
65614;BME280;52283;49.292;10.572;2022-11-15T04:14:23;96208.28;;;5.02;100.00
65614;BME280;52283;49.292;10.572;2022-11-15T04:16:50;96195.31;;;5.47;100.00
65614;BME280;52283;49.292;10.572;2022-11-15T04:19:16;96195.22;;;5.71;100.00
65614;BME280;52283;49.292;10.572;2022-11-15T04:22:01;96199.19;;;5.94;100.00
65614;BME280;52283;49.292;10.572;2022-11-15T04:24:45;96188.84;;;6.09;100.00
65614;BME280;52283;49.292;10.572;2022-11-15T04:27:12;96190.78;;;6.38;100.00
65614;BME280;52283;49.292;10.572;2022-11-15T04:29:39;96182.41;;;6.18;100.00
65614;BME280;52283;49.292;10.572;2022-11-15T04:32:06;96184.75;;;6.04;100.00
65614;BME280;52283;49.292;10.572;2022-11-15T04:34:33;96178.78;;;5.97;100.00
65614;BME280;52283;49.292;10.572;2022-11-15T04:37:01;96170.69;;;5.93;100.00
65614;BME280;52283;49.292;10.572;2022-11-15T04:39:40;96178.50;;;6.09;100.00
65614;BME280;52283;49.292;10.572;2022-11-15T04:42:07;96180.22;;;6.07;100.00
65614;BME280;52283;49.292;10.572;2022-11-15T04:44:34;96177.63;;;6.03;100.00
65614;BME280;52283;49.292;10.572;2022-11-15T04:47:01;96185.66;;;6.01;100.00
65614;BME280;52283;49.292;10.572;2022-11-15T04:49:28;96174.41;;;6.05;100.00
65614;BME280;52283;49.292;10.572;2022-11-15T04:51:54;96174.69;;;6.07;100.00
65614;BME280;52283;49.292;10.572;2022-11-15T04:54:22;96178.72;;;5.91;100.00
65614;BME280;52283;49.292;10.572;2022-11-15T04:56:48;96173.34;;;5.88;100.00
65614;BME280;52283;49.292;10.572;2022-11-15T04:59:15;96168.44;;;5.82;100.00
65614;BME280;52283;49.292;10.572;2022-11-15T05:01:41;96168.84;;;5.75;100.00
65614;BME280;52283;49.292;10.572;2022-11-15T05:04:08;96164.72;;;5.71;100.00
65614;BME280;52283;49.292;10.572;2022-11-15T05:06:47;96161.97;;;5.71;100.00
65614;BME280;52283;49.292;10.572;2022-11-15T05:09:13;96165.22;;;5.69;100.00
65614;BME280;52283;49.292;10.572;2022-11-15T05:11:41;96152.88;;;5.56;100.00
65614;BME280;52283;49.292;10.572;2022-11-15T05:14:08;96160.41;;;5.55;100.00
65614;BME280;52283;49.292;10.572;2022-11-15T05:16:35;96161.97;;;5.41;100.00
65614;BME280;52283;49.292;10.572;2022-11-15T05:19:02;96159.97;;;5.18;100.00
65614;BME280;52283;49.292;10.572;2022-11-15T05:21:28;96164.03;;;5.32;100.00
65614;BME280;52283;49.292;10.572;2022-11-15T05:23:55;96161.94;;;5.56;100.00
65614;BME280;52283;49.292;10.572;2022-11-15T05:26:21;96157.25;;;5.77;100.00
65614;BME280;52283;49.292;10.572;2022-11-15T05:28:53;96153.44;;;5.89;100.00
65614;BME280;52283;49.292;10.572;2022-11-15T05:31:21;96153.44;;;5.89;100.00
65614;BME280;52283;49.292;10.572;2022-11-15T05:33:48;96150.59;;;5.84;100.00
65614;BME280;52283;49.292;10.572;2022-11-15T05:36:20;96137.56;;;5.75;100.00
65614;BME280;52283;49.292;10.572;2022-11-15T05:38:48;96142.25;;;5.54;100.00
65614;BME280;52283;49.292;10.572;2022-11-15T05:41:16;96140.44;;;5.22;100.00
65614;BME280;52283;49.292;10.572;2022-11-15T05:43:44;96145.84;;;4.77;100.00
65614;BME280;52283;49.292;10.572;2022-11-15T05:46:15;96148.03;;;4.49;100.00
65614;BME280;52283;49.292;10.572;2022-11-15T05:48:45;96153.72;;;4.22;100.00
65614;BME280;52283;49.292;10.572;2022-11-15T05:51:18;96149.13;;;4.19;100.00
65614;BME280;52283;49.292;10.572;2022-11-15T05:53:46;96135.41;;;3.91;100.00
65614;BME280;52283;49.292;10.572;2022-11-15T05:56:13;96138.66;;;3.90;100.00
65614;BME280;52283;49.292;10.572;2022-11-15T05:58:40;96125.94;;;4.16;100.00
65614;BME280;52283;49.292;10.572;2022-11-15T06:01:08;96123.34;;;4.84;100.00
65614;BME280;52283;49.292;10.572;2022-11-15T06:03:36;96122.44;;;4.64;100.00
65614;BME280;52283;49.292;10.572;2022-11-15T06:06:02;96138.09;;;4.43;100.00
65614;BME280;52283;49.292;10.572;2022-11-15T06:08:29;96127.13;;;4.24;100.00
65614;BME280;52283;49.292;10.572;2022-11-15T06:10:55;96131.13;;;3.90;100.00
65614;BME280;52283;49.292;10.572;2022-11-15T06:13:22;96131.19;;;3.72;100.00
65614;BME280;52283;49.292;10.572;2022-11-15T06:15:48;96132.16;;;3.60;100.00
65614;BME280;52283;49.292;10.572;2022-11-15T06:18:14;96128.75;;;3.65;100.00
65614;BME280;52283;49.292;10.572;2022-11-15T06:20:42;96130.59;;;3.77;100.00
65614;BME280;52283;49.292;10.572;2022-11-15T06:23:09;96134.13;;;3.68;100.00
65614;BME280;52283;49.292;10.572;2022-11-15T06:25:35;96132.28;;;3.65;100.00
65614;BME280;52283;49.292;10.572;2022-11-15T06:28:02;96132.94;;;3.51;100.00
65614;BME280;52283;49.292;10.572;2022-11-15T06:30:28;96131.88;;;3.58;100.00
65614;BME280;52283;49.292;10.572;2022-11-15T06:32:59;96131.56;;;3.56;100.00
65614;BME280;52283;49.292;10.572;2022-11-15T06:35:27;96138.28;;;3.64;100.00
65614;BME280;52283;49.292;10.572;2022-11-15T06:37:56;96130.63;;;3.59;100.00
65614;BME280;52283;49.292;10.572;2022-11-15T06:40:22;96137.69;;;3.51;100.00
65614;BME280;52283;49.292;10.572;2022-11-15T06:42:49;96134.47;;;3.52;100.00
65614;BME280;52283;49.292;10.572;2022-11-15T06:45:15;96144.16;;;3.48;100.00
65614;BME280;52283;49.292;10.572;2022-11-15T06:47:45;96142.16;;;3.48;100.00
65614;BME280;52283;49.292;10.572;2022-11-15T06:50:12;96142.50;;;3.41;100.00
65614;BME280;52283;49.292;10.572;2022-11-15T06:52:39;96134.84;;;3.36;100.00
65614;BME280;52283;49.292;10.572;2022-11-15T06:55:08;96141.22;;;3.51;100.00
65614;BME280;52283;49.292;10.572;2022-11-15T06:57:35;96138.81;;;3.44;100.00
65614;BME280;52283;49.292;10.572;2022-11-15T07:00:02;96138.50;;;3.42;100.00
65614;BME280;52283;49.292;10.572;2022-11-15T07:02:29;96134.94;;;3.51;100.00
65614;BME280;52283;49.292;10.572;2022-11-15T07:04:55;96138.00;;;3.62;100.00
65614;BME280;52283;49.292;10.572;2022-11-15T07:07:22;96141.69;;;3.59;100.00
65614;BME280;52283;49.292;10.572;2022-11-15T07:09:48;96134.16;;;3.50;100.00
65614;BME280;52283;49.292;10.572;2022-11-15T07:12:16;96135.28;;;3.44;100.00
65614;BME280;52283;49.292;10.572;2022-11-15T07:14:42;96139.25;;;3.43;100.00
65614;BME280;52283;49.292;10.572;2022-11-15T07:17:09;96140.63;;;3.47;100.00
65614;BME280;52283;49.292;10.572;2022-11-15T07:19:35;96136.34;;;3.46;100.00
65614;BME280;52283;49.292;10.572;2022-11-15T07:22:02;96138.34;;;3.46;100.00
65614;BME280;52283;49.292;10.572;2022-11-15T07:24:28;96142.78;;;3.43;100.00
65614;BME280;52283;49.292;10.572;2022-11-15T07:26:54;96142.47;;;3.50;100.00
65614;BME280;52283;49.292;10.572;2022-11-15T07:29:22;96147.53;;;3.52;100.00
65614;BME280;52283;49.292;10.572;2022-11-15T07:31:49;96143.69;;;3.49;100.00
65614;BME280;52283;49.292;10.572;2022-11-15T07:34:15;96150.16;;;3.46;100.00
65614;BME280;52283;49.292;10.572;2022-11-15T07:36:42;96148.75;;;3.51;100.00
65614;BME280;52283;49.292;10.572;2022-11-15T07:39:08;96139.22;;;3.61;100.00
65614;BME280;52283;49.292;10.572;2022-11-15T07:41:37;96134.25;;;3.74;100.00
65614;BME280;52283;49.292;10.572;2022-11-15T07:44:04;96139.41;;;4.00;100.00
65614;BME280;52283;49.292;10.572;2022-11-15T07:46:32;96141.53;;;4.28;100.00
65614;BME280;52283;49.292;10.572;2022-11-15T07:48:58;96135.44;;;4.48;100.00
65614;BME280;52283;49.292;10.572;2022-11-15T07:51:25;96142.69;;;5.08;100.00
65614;BME280;52283;49.292;10.572;2022-11-15T07:53:51;96138.41;;;5.37;100.00
65614;BME280;52283;49.292;10.572;2022-11-15T07:56:18;96144.09;;;5.42;100.00
65614;BME280;52283;49.292;10.572;2022-11-15T07:58:45;96145.59;;;5.58;100.00
65614;BME280;52283;49.292;10.572;2022-11-15T08:01:12;96143.78;;;5.99;100.00
65614;BME280;52283;49.292;10.572;2022-11-15T08:03:40;96136.28;;;6.20;100.00
65614;BME280;52283;49.292;10.572;2022-11-15T08:06:06;96148.53;;;6.28;100.00
65614;BME280;52283;49.292;10.572;2022-11-15T08:08:33;96137.00;;;6.35;100.00
65614;BME280;52283;49.292;10.572;2022-11-15T08:10:59;96142.03;;;6.52;100.00
65614;BME280;52283;49.292;10.572;2022-11-15T08:13:26;96132.75;;;6.55;100.00
65614;BME280;52283;49.292;10.572;2022-11-15T08:15:57;96135.44;;;6.49;100.00
65614;BME280;52283;49.292;10.572;2022-11-15T08:18:24;96128.72;;;6.56;100.00
65614;BME280;52283;49.292;10.572;2022-11-15T08:20:52;96129.53;;;6.41;100.00
65614;BME280;52283;49.292;10.572;2022-11-15T08:23:18;96116.81;;;6.35;100.00
65614;BME280;52283;49.292;10.572;2022-11-15T08:25:44;96123.75;;;6.45;100.00
65614;BME280;52283;49.292;10.572;2022-11-15T08:28:11;96125.03;;;6.64;100.00
65614;BME280;52283;49.292;10.572;2022-11-15T08:30:39;96115.16;;;6.84;100.00
65614;BME280;52283;49.292;10.572;2022-11-15T08:33:10;96113.72;;;7.09;100.00
65614;BME280;52283;49.292;10.572;2022-11-15T08:35:37;96118.94;;;7.27;100.00
65614;BME280;52283;49.292;10.572;2022-11-15T08:38:04;96108.38;;;7.31;100.00
65614;BME280;52283;49.292;10.572;2022-11-15T08:40:31;96104.22;;;7.47;100.00
65614;BME280;52283;49.292;10.572;2022-11-15T08:42:57;96106.09;;;7.55;100.00
65614;BME280;52283;49.292;10.572;2022-11-15T08:45:27;96102.63;;;7.66;100.00
65614;BME280;52283;49.292;10.572;2022-11-15T08:47:54;96104.50;;;7.75;100.00
65614;BME280;52283;49.292;10.572;2022-11-15T08:50:20;96105.09;;;7.90;100.00
65614;BME280;52283;49.292;10.572;2022-11-15T08:52:47;96104.13;;;7.93;100.00
65614;BME280;52283;49.292;10.572;2022-11-15T08:55:15;96098.47;;;7.82;100.00
65614;BME280;52283;49.292;10.572;2022-11-15T08:57:41;96094.31;;;8.03;100.00
65614;BME280;52283;49.292;10.572;2022-11-15T09:00:09;96102.28;;;8.16;100.00
65614;BME280;52283;49.292;10.572;2022-11-15T09:02:37;96093.91;;;8.16;100.00
65614;BME280;52283;49.292;10.572;2022-11-15T09:05:04;96090.91;;;8.19;100.00
65614;BME280;52283;49.292;10.572;2022-11-15T09:07:31;96088.94;;;8.31;100.00
65614;BME280;52283;49.292;10.572;2022-11-15T09:09:57;96086.56;;;8.13;100.00
65614;BME280;52283;49.292;10.572;2022-11-15T09:12:25;96082.47;;;8.08;100.00
65614;BME280;52283;49.292;10.572;2022-11-15T09:14:52;96080.97;;;8.50;100.00
65614;BME280;52283;49.292;10.572;2022-11-15T09:17:18;96082.59;;;8.73;100.00
65614;BME280;52283;49.292;10.572;2022-11-15T09:19:45;96074.22;;;8.73;100.00
65614;BME280;52283;49.292;10.572;2022-11-15T09:22:11;96079.78;;;8.68;100.00
65614;BME280;52283;49.292;10.572;2022-11-15T09:24:38;96074.22;;;8.68;100.00
65614;BME280;52283;49.292;10.572;2022-11-15T09:27:04;96076.84;;;8.88;100.00
65614;BME280;52283;49.292;10.572;2022-11-15T09:29:32;96066.50;;;9.00;100.00
65614;BME280;52283;49.292;10.572;2022-11-15T09:31:59;96062.72;;;9.08;100.00
65614;BME280;52283;49.292;10.572;2022-11-15T09:34:25;96065.84;;;9.72;93.79
65614;BME280;52283;49.292;10.572;2022-11-15T09:36:52;96066.59;;;9.78;91.32
65614;BME280;52283;49.292;10.572;2022-11-15T09:39:18;96060.50;;;9.74;90.36
65614;BME280;52283;49.292;10.572;2022-11-15T09:42:10;96048.56;;;9.90;85.76
65614;BME280;52283;49.292;10.572;2022-11-15T09:44:51;96049.56;;;9.98;85.37
65614;BME280;52283;49.292;10.572;2022-11-15T09:47:40;96040.38;;;10.48;78.72
65614;BME280;52283;49.292;10.572;2022-11-15T09:50:15;96034.72;;;10.59;77.36
65614;BME280;52283;49.292;10.572;2022-11-15T09:52:44;96028.91;;;10.63;76.70
65614;BME280;52283;49.292;10.572;2022-11-15T09:55:12;96030.38;;;10.69;76.97
65614;BME280;52283;49.292;10.572;2022-11-15T09:57:53;96016.78;;;10.96;73.11
65614;BME280;52283;49.292;10.572;2022-11-15T10:00:24;96031.06;;;10.87;75.75
65614;BME280;52283;49.292;10.572;2022-11-15T10:03:10;96019.38;;;10.88;74.90
65614;BME280;52283;49.292;10.572;2022-11-15T10:05:39;96012.03;;;11.26;71.05
65614;BME280;52283;49.292;10.572;2022-11-15T10:08:18;96001.69;;;11.51;69.39
65614;BME280;52283;49.292;10.572;2022-11-15T10:10:51;95992.94;;;11.60;67.87
65614;BME280;52283;49.292;10.572;2022-11-15T10:13:22;95996.13;;;11.46;67.74
65614;BME280;52283;49.292;10.572;2022-11-15T10:15:51;95997.25;;;11.61;66.34
65614;BME280;52283;49.292;10.572;2022-11-15T10:18:23;95984.22;;;11.70;65.97
65614;BME280;52283;49.292;10.572;2022-11-15T10:20:57;95974.66;;;11.89;63.87
65614;BME280;52283;49.292;10.572;2022-11-15T10:23:24;95974.81;;;11.97;63.11
65614;BME280;52283;49.292;10.572;2022-11-15T10:25:51;95969.69;;;12.01;63.30
65614;BME280;52283;49.292;10.572;2022-11-15T10:28:22;95963.34;;;12.01;62.84
65614;BME280;52283;49.292;10.572;2022-11-15T10:30:55;95965.38;;;12.00;62.36
65614;BME280;52283;49.292;10.572;2022-11-15T10:33:26;95943.63;;;12.12;62.32
65614;BME280;52283;49.292;10.572;2022-11-15T10:36:15;95952.31;;;12.08;62.04
65614;BME280;52283;49.292;10.572;2022-11-15T10:39:02;95944.13;;;12.35;62.06
65614;BME280;52283;49.292;10.572;2022-11-15T10:41:32;95959.06;;;12.18;64.28
65614;BME280;52283;49.292;10.572;2022-11-15T10:44:07;95956.38;;;12.07;65.30
65614;BME280;52283;49.292;10.572;2022-11-15T10:46:38;95954.69;;;12.23;64.45
65614;BME280;52283;49.292;10.572;2022-11-15T10:49:13;95949.72;;;12.35;64.49
65614;BME280;52283;49.292;10.572;2022-11-15T10:51:43;95943.97;;;12.46;62.96
65614;BME280;52283;49.292;10.572;2022-11-15T10:54:11;95933.84;;;12.62;62.28
65614;BME280;52283;49.292;10.572;2022-11-15T10:56:39;95923.81;;;12.66;60.87
65614;BME280;52283;49.292;10.572;2022-11-15T10:59:15;95914.00;;;12.60;59.27
65614;BME280;52283;49.292;10.572;2022-11-15T11:01:47;95907.75;;;12.67;58.18
65614;BME280;52283;49.292;10.572;2022-11-15T11:04:14;95920.28;;;12.66;58.97
65614;BME280;52283;49.292;10.572;2022-11-15T11:06:48;95909.44;;;12.57;58.06
65614;BME280;52283;49.292;10.572;2022-11-15T11:09:28;95911.03;;;12.71;58.84
65614;BME280;52283;49.292;10.572;2022-11-15T11:11:55;95907.63;;;12.78;58.82
65614;BME280;52283;49.292;10.572;2022-11-15T11:14:23;95914.34;;;12.88;58.93
65614;BME280;52283;49.292;10.572;2022-11-15T11:16:55;95903.50;;;12.98;59.17
65614;BME280;52283;49.292;10.572;2022-11-15T11:19:46;95906.47;;;12.87;59.66
65614;BME280;52283;49.292;10.572;2022-11-15T11:22:21;95898.00;;;12.73;59.66
65614;BME280;52283;49.292;10.572;2022-11-15T11:24:56;95897.47;;;12.75;59.82
65614;BME280;52283;49.292;10.572;2022-11-15T11:27:36;95907.09;;;12.79;60.42
65614;BME280;52283;49.292;10.572;2022-11-15T11:30:10;95908.06;;;12.82;60.96
65614;BME280;52283;49.292;10.572;2022-11-15T11:35:51;95903.84;;;12.75;61.89
65614;BME280;52283;49.292;10.572;2022-11-15T11:38:34;95902.16;;;12.86;61.92
65614;BME280;52283;49.292;10.572;2022-11-15T11:41:10;95902.53;;;12.76;62.72
65614;BME280;52283;49.292;10.572;2022-11-15T11:43:47;95895.75;;;12.72;64.77
65614;BME280;52283;49.292;10.572;2022-11-15T11:46:45;95889.28;;;12.77;64.76
65614;BME280;52283;49.292;10.572;2022-11-15T11:49:18;95902.25;;;12.80;65.15
65614;BME280;52283;49.292;10.572;2022-11-15T11:51:50;95897.25;;;12.73;65.71
65614;BME280;52283;49.292;10.572;2022-11-15T11:54:20;95896.75;;;12.88;66.23
65614;BME280;52283;49.292;10.572;2022-11-15T11:56:50;95898.44;;;12.96;65.55
65614;BME280;52283;49.292;10.572;2022-11-15T11:59:21;95898.06;;;12.87;65.57
65614;BME280;52283;49.292;10.572;2022-11-15T12:01:50;95890.63;;;12.89;66.54
65614;BME280;52283;49.292;10.572;2022-11-15T12:04:20;95879.59;;;12.78;64.92
65614;BME280;52283;49.292;10.572;2022-11-15T12:06:57;95878.50;;;12.81;63.99
65614;BME280;52283;49.292;10.572;2022-11-15T12:09:30;95874.09;;;12.86;64.98
65614;BME280;52283;49.292;10.572;2022-11-15T12:12:04;95878.81;;;12.96;65.46
65614;BME280;52283;49.292;10.572;2022-11-15T12:14:43;95855.69;;;12.90;63.42
65614;BME280;52283;49.292;10.572;2022-11-15T12:17:12;95860.19;;;12.80;62.62
65614;BME280;52283;49.292;10.572;2022-11-15T12:19:39;95860.63;;;12.84;63.93
65614;BME280;52283;49.292;10.572;2022-11-15T12:22:13;95858.56;;;12.85;62.73
65614;BME280;52283;49.292;10.572;2022-11-15T12:24:45;95861.88;;;13.02;63.43
65614;BME280;52283;49.292;10.572;2022-11-15T12:27:17;95862.75;;;13.10;62.60
65614;BME280;52283;49.292;10.572;2022-11-15T12:29:47;95862.53;;;13.08;62.34
65614;BME280;52283;49.292;10.572;2022-11-15T12:32:18;95858.94;;;12.94;61.82
65614;BME280;52283;49.292;10.572;2022-11-15T12:34:48;95863.50;;;12.97;62.92
65614;BME280;52283;49.292;10.572;2022-11-15T12:37:49;95853.63;;;12.91;62.07
65614;BME280;52283;49.292;10.572;2022-11-15T12:40:31;95871.69;;;12.95;62.72
65614;BME280;52283;49.292;10.572;2022-11-15T12:43:05;95871.16;;;12.97;62.66
65614;BME280;52283;49.292;10.572;2022-11-15T12:45:37;95861.97;;;12.96;62.96
65614;BME280;52283;49.292;10.572;2022-11-15T12:51:13;95860.09;;;12.86;64.08
65614;BME280;52283;49.292;10.572;2022-11-15T12:53:41;95868.34;;;12.97;64.34
65614;BME280;52283;49.292;10.572;2022-11-15T12:56:21;95857.91;;;13.10;63.45
65614;BME280;52283;49.292;10.572;2022-11-15T12:58:50;95855.09;;;13.10;62.73
65614;BME280;52283;49.292;10.572;2022-11-15T13:04:32;95849.16;;;13.01;63.73
65614;BME280;52283;49.292;10.572;2022-11-15T13:07:01;95846.94;;;13.12;63.89
65614;BME280;52283;49.292;10.572;2022-11-15T13:10:00;95843.41;;;12.93;62.92
65614;BME280;52283;49.292;10.572;2022-11-15T13:12:49;95838.91;;;13.03;64.29
65614;BME280;52283;49.292;10.572;2022-11-15T13:15:45;95838.38;;;13.05;63.44